Airfield :
LOGIN :

Register | Disclaimer

   EN    FR    IT 

 










Legend :    VFR   Marginal VFR   IFR   Intensive IFR   Very Intensive IFR
Visi :
Ceiling :
>= 8 km
>= 3000ft
5 to 8 km
1000 to 3000 ft
1500m to 5 km
500 to 1000 ft
800 to 1500m
200 to 500 ft
< 800m
< 200 ft
Symbols :   Thunderstorms  Fog  Heavy snow  Heavy precipitations  Wind > 20 kt
SIGMETs :     Misc.  Thunderstorms  Icing  Turbulence  Mountain Waves  Volcanic Ashes






- Airport Elevation : 143 ft


LGEL - Elefsis

CURRENT METAR :
  • 041550Z 34005KT 9999 BKN025 14/08 Q1024

EXPIRED METARs :
  • 041520Z VRB03KT 9999 BKN025 14/08 Q1023
  • 041450Z 35006KT 9999 SCT025 15/08 Q1023
  • 041420Z 35007KT 9999 FEW025 15/08 Q1023
  • 041350Z VRB03KT 9999 FEW025 16/08 Q1023

TAF TAF LGEL
Valid from the 04 at 12:00 until the 05 at 12:00 UTC


041100Z 0412/0512 35008KT 9999 FEW018 SCT070
TEMPO 0412/0418 SCT018 BKN070
PROB30
TEMPO 0414/0418 5000 RA SCT015 FEW018TCU BKN025



MET'MAP, your aeronautical weather chart ! - Copyright ORBIFLY December 2007 - Disclaimer

ORBIFLY MET'MAP TEAM :

Programming & Development : Alexandra Zaïnal
Original concept : Baudouin d'Aumeries
Technical & hardware support : Manuel Goepfert
Assistance : Marc-Olivier Méhu




SOURCES & CREDITS :

   NOAA